Camp Springs, North Carolina
Current Conditions -  °F | °C
As of 1:55 PM on Friday 31 Oct 2014 (Local Time) from KSIF Reporting Station
Overcast Overcast  
Wind Chill: 54°   Ceiling: 5000
Heat Index: 54°   Visibility: 10mi
Dew Point: 40°   Wind: 0mph
Humidity: 61%   Direction: NA
Pressure: 29.88"   Gusts: NA
Location:  36.3355°N, 79.6561°W
Report Text: KSIF 311755Z AUTO 00000KT 10SM SCT043 OVC050 12/05 A2988 RMK AO2 T01200047 10121 20012
Loading
Personal Weather Stations






























Interactive Weather Map
Tropical Storm Tracking
New forecast layout! Learn more

10-Day Weather Forecast

Advertisements
Track Severe Weather on mobile